2021/10/22 10:20 EDDV 221020Z 25020G37KT 220V280 9999 BKN028 10/04 Q1008 NOSIG